FW2254 Weather Reports


time (UTC)temp
F
wind
direction
speed
knots
gust
knots
rain 1hr
in
rain 24hr
in
rain mn
in
humidity
%
barometer
mb
20190323201728 71 137 0.9 5.2 0.00 0.01 0.01 52 1003.6
20190323200241 72 133 2.6 7.0 0.00 0.01 0.01 49 1004.0
20190323194639 71 122 0.9 5.2 0.00 0.01 0.01 49 1004.1
20190323193159 71 133 0.9 2.6 0.00 0.01 0.01 48 1004.2
20190323191621 71 156 0.9 2.6 0.00 0.01 0.01 46 1004.3
20190323190147 70 121 0.9 5.2 0.00 0.01 0.01 47 1004.4
20190323184703 72 183 1.7 7.0 0.00 0.01 0.01 48 1004.6
20190323183151 73 147 2.6 7.0 0.00 0.01 0.01 47 1004.7
20190323181703 72 78 1.7 6.1 0.00 0.01 0.01 50 1005.0
20190323180212 68 61 0.9 5.2 0.00 0.01 0.01 65 1005.6
20190323174702 69 51 1.7 3.5 0.00 0.01 0.01 66 1005.8
20190323173144 67 223 0.9 6.1 0.00 0.01 0.01 69 1005.9
20190323171634 64 144 0.9 2.6 0.00 0.01 0.01 79 1006.2
20190323170113 61 301 0.0 2.6 0.00 0.01 0.01 83 1006.4
20190323164547 59 40 0.0 1.7 0.00 0.01 0.01 87 1006.4
20190323163047 58 40 0.9 1.7 0.01 0.01 0.01 90 1006.3
20190323161548 57 278 0.9 3.5 0.01 0.01 0.01 91 1006.5
20190323160106 57 272 1.7 5.2 0.01 0.01 0.01 89 1006.2
20190323154544 57 100 1.7 4.3 0.01 0.01 0.01 88 1005.1
20190323153103 56 118 0.9 5.2 0.00 0.00 0.00 89 1005.2
20190323151529 55 106 0.0 1.7 0.00 0.00 0.00 88 1006.1
20190323150036 56 141 0.9 3.5 0.00 0.00 0.00 82 1006.4
20190323144540 56 91 0.0 6.1 0.00 0.00 0.00 80 1006.0
20190323143034 56 115 0.9 3.5 0.00 0.00 0.00 79 1006.1
20190323141530 56 129 0.9 2.6 0.00 0.00 0.00 77 1006.0
20190323140022 55 115 0.9 2.6 0.00 0.00 0.00 77 1006.4
20190323134541 54 84 0.0 0.9 0.00 0.00 0.00 80 1006.4
20190323133028 54 84 0.0 0.0 0.00 0.00 0.00 83 1006.1
20190323131530 54 84 0.0 0.9 0.00 0.00 0.00 81 1005.9
20190323130022 54 84 0.0 1.7 0.00 0.00 0.00 79 1005.2
20190323124510 53 84 0.0 1.7 0.00 0.00 0.00 80 1005.2
20190323123012 52 74 0.0 0.0 0.00 0.00 0.00 82 1005.1
20190323121522 52 74 0.0 0.9 0.00 0.00 0.00 82 1004.7
20190323120012 53 133 0.0 3.5 0.00 0.00 0.00 79 1004.3
20190323114514 52 42 0.9 1.7 0.00 0.00 0.00 83 1004.1
20190323113002 51 302 0.0 0.0 0.00 0.00 0.00 85 1004.3
20190323111501 52 302 0.0 0.0 0.00 0.00 0.00 84 1004.3
20190323110215 52 302 0.0 0.9 0.00 0.00 0.00 83 1004.2
20190323110001 52 302 0.0 0.9 0.00 0.00 0.00 83 1004.1
20190323104730 52 302 0.0 0.9 0.00 0.00 0.00 81 1004.1
20190323101620 52 302 0.0 0.0 0.00 0.00 0.00 79 1004.3
20190323100208 52 302 0.0 0.0 0.00 0.00 0.00 77 1004.3
20190323094727 52 302 0.0 1.7 0.00 0.00 0.00 76 1004.3
20190323093134 54 144 0.0 0.0 0.00 0.00 0.00 77 1004.0
20190323091634 53 144 0.0 0.0 0.00 0.00 0.00 79 1004.1
20190323090125 53 144 0.0 0.9 0.00 0.00 0.00 80 1003.8
20190323084646 53 144 0.9 1.7 0.00 0.00 0.00 77 1004.0
20190323081707 53 144 0.0 0.0 0.00 0.00 0.00 72 1004.2
20190323080209 52 144 0.0 0.0 0.00 0.00 0.00 73 1004.0
20190323074635 53 144 0.0 0.9 0.00 0.00 0.00 73 1004.0
20190323073141 54 144 0.0 3.5 0.00 0.00 0.00 73 1003.9
20190323071615 54 88 0.0 1.7 0.00 0.00 0.00 72 1003.8
20190323070139 54 88 0.9 2.6 0.00 0.00 0.00 70 1003.9
20190323064721 55 104 0.9 1.7 0.00 0.00 0.00 67 1004.3
20190323063142 55 104 0.0 0.0 0.00 0.00 0.00 63 1003.8
20190323061619 55 104 0.0 0.0 0.00 0.00 0.00 66 1003.8
20190323060137 55 104 0.0 0.9 0.00 0.00 0.00 65 1003.8
20190323054601 56 104 0.0 0.9 0.00 0.00 0.00 64 1003.7
20190323053143 56 105 0.0 0.9 0.00 0.00 0.00 62 1003.9
20190323051626 56 119 0.0 0.9 0.00 0.00 0.00 65 1004.0
20190323050123 56 182 0.0 0.9 0.00 0.00 0.00 66 1004.0
20190323044604 56 172 0.0 1.7 0.00 0.00 0.00 65 1004.3
20190323043129 56 84 0.0 0.0 0.00 0.00 0.00 65 1004.3
20190323041610 56 84 0.0 0.9 0.00 0.00 0.00 64 1004.3
20190323040038 56 84 0.0 0.9 0.00 0.00 0.00 65 1004.4
20190323034537 57 84 0.0 0.0 0.00 0.00 0.00 63 1004.3
20190323033044 57 84 0.0 0.0 0.00 0.00 0.00 63 1004.3
20190323031543 57 84 0.0 0.0 0.00 0.00 0.00 63 1004.3
20190323030052 57 84 0.0 0.0 0.00 0.00 0.00 62 1004.6
20190323024549 57 84 0.0 0.0 0.00 0.00 0.00 62 1004.8
20190323023059 58 84 0.0 0.0 0.00 0.00 0.00 60 1004.7
20190323021530 59 84 0.0 0.0 0.00 0.00 0.00 59 1004.6
20190323020047 59 84 0.0 0.0 0.00 0.00 0.00 57 1004.4
20190323014525 60 84 0.0 0.0 0.00 0.00 0.00 55 1004.4
20190323013044 61 84 0.0 0.0 0.00 0.00 0.00 52 1004.3
20190323011551 62 84 0.0 0.0 0.00 0.00 0.00 51 1004.1
20190323010044 63 84 0.0 0.9 0.00 0.00 0.00 51 1004.0
20190323004549 64 84 0.0 0.9 0.00 0.00 0.00 49 1003.9
20190323003027 66 84 0.0 0.9 0.00 0.00 0.00 47 1003.9
20190323001548 68 84 0.0 1.7 0.00 0.00 0.00 43 1003.8
20190323000038 70 119 0.0 1.7 0.00 0.00 0.00 39 1003.9
20190322234605 70 120 0.0 0.9 0.00 0.00 0.00 35 1003.7
20190322233040 71 120 0.0 1.7 0.00 0.00 0.00 35 1003.7
20190322231523 71 76 0.0 1.7 0.00 0.00 0.00 36 1003.7
20190322230026 72 86 0.0 1.7 0.00 0.00 0.00 31 1003.6
20190322224516 73 86 0.0 2.6 0.00 0.00 0.00 29 1003.7
20190322223027 73 47 0.0 1.7 0.00 0.00 0.00 28 1003.7
20190322221516 73 36 0.0 2.6 0.00 0.00 0.00 30 1003.8
20190322220011 73 92 0.0 1.7 0.00 0.00 0.00 29 1003.9
20190322214519 73 30 0.0 1.7 0.00 0.00 0.00 31 1004.1
20190322213014 73 38 0.9 2.6 0.00 0.00 0.00 30 1004.3
20190322211513 74 82 1.7 4.3 0.00 0.00 0.00 29 1004.4
20190322210004 74 44 0.0 3.5 0.00 0.00 0.00 29 1004.6
20190322203205 74 54 1.7 4.3 0.00 0.00 0.00 27 1004.9